Monday, June 25, 2018, 9:33 AM EDT
Back to Local

KMQE, Milton Blue Hill Observ

Location: Milton, MA, United States Lat: 42.217
Local Time: 9:33 AM EDT (13:33 GMT) Lon: -71.117
Time Zone: US/Eastern Elev: 629 ft

Show me the last for .
Show Decoded

2018-06-25 08:56 METAR KMQE 251256Z AUTO 32013G20KT 19/17 A2986 RMK AO1 SLP120 T01890167 =
2018-06-25 07:56 METAR KMQE 251156Z AUTO 32006KT 18/17 A2985 RMK AO1 SLP114 60009 70038 T01780172
                 10189 20161 53019 =
2018-06-25 06:56 METAR KMQE 251056Z AUTO 32008KT 17/17 A2983 RMK AO1 SLP109 T01670167 =
2018-06-25 05:56 METAR KMQE 250956Z AUTO 34010G16KT 17/17 A2980 RMK AO1 SLP099 T01670167 =
2018-06-25 04:56 METAR KMQE 250856Z AUTO 34009G17KT 17/17 A2979 RMK AO1 SLP094 60009 T01670167
                 53011 =
2018-06-25 03:56 METAR KMQE 250756Z AUTO 34009G15KT 17/17 A2978 RMK AO1 SLP089 T01720172 =
2018-06-25 02:56 METAR KMQE 250656Z AUTO 31009KT 17/17 A2976 RMK AO1 SLP083 P0009 T01720172 =
2018-06-25 01:56 METAR KMQE 250556Z AUTO 28009KT 19/19 A2976 RMK AO1 SLP083 P0004 60019 T01890189
                 10200 20189 58007 =
2018-06-25 00:56 METAR KMQE 250456Z AUTO 20007KT 19/19 A2976 RMK AO1 SLP084 T01890189 402610128 =
2018-06-24 23:56 METAR KMQE 250356Z AUTO 19006KT 19/19 A2979 RMK AO1 SLP094 T01890189 =
2018-06-24 22:56 METAR KMQE 250256Z AUTO 19004KT 19/19 A2978 RMK AO1 SLP091 60015 T01940194 58008
                 =
2018-06-24 21:56 METAR KMQE 250156Z AUTO 21004KT 19/19 A2980 RMK AO1 SLP098 T01940194 =
2018-06-24 20:56 METAR KMQE 250056Z AUTO 18007KT 19/19 A2980 RMK AO1 SLP099 P0015 T01940194 =
2018-06-24 19:56 METAR KMQE 242356Z AUTO 21008KT 20/19 A2980 RMK AO1 SLP100 P0010 60010 T02000194
                 10261 20200 53007 =
2018-06-24 18:56 METAR KMQE 242256Z AUTO 20008KT 22/19 A2980 RMK AO1 SLP098 T02170189 =
2018-06-24 17:56 METAR KMQE 242156Z AUTO 20009KT 24/19 A2978 RMK AO1 SLP093 T02390189 =
2018-06-24 16:56 METAR KMQE 242056Z AUTO 19009KT 24/19 A2978 RMK AO1 SLP092 T02440189 58006 =
2018-06-24 15:56 METAR KMQE 241956Z AUTO 20009KT 26/19 A2979 RMK AO1 SLP095 T02560194 =
2018-06-24 14:56 METAR KMQE 241856Z AUTO 18007KT 25/18 A2980 RMK AO1 SLP097 T02500183 =
2018-06-24 13:56 METAR KMQE 241756Z AUTO 00000KT 24/18 A2980 RMK AO1 SLP099 T02390178 10250 20144
                 58012 =
2018-06-24 12:56 METAR KMQE 241656Z AUTO VRB03KT 23/18 A2982 RMK AO1 SLP104 T02330178 =
2018-06-24 11:56 METAR KMQE 241556Z AUTO 20008KT 22/17 A2983 RMK AO1 SLP108 T02220172 =
2018-06-24 10:56 METAR KMQE 241456Z AUTO 22007KT 20/17 A2984 RMK AO1 SLP112 T02000172 51006 =
2018-06-24 09:56 METAR KMQE 241356Z AUTO 25008KT 17/16 A2983 RMK AO1 SLP110 T01720161 =

Support USWX by starting your Amazon purchase here.